Time;durP1;ratioP1;P1;durP2;ratioP2;P2;SDS_P1;SDS_P2;PMS_P1;PMS_P2;Temp;Humidity;BMP_temperature;BMP_pressure;BME280_temperature;BME280_humidity;BME280_pressure;Samples;Min_cycle;Max_cycle;Signal;HPM_P1;HPM_P2
2022/12/09 00:06:32;;;;;;;19.30;11.45;;;;;;;0.50;73.50;99419.56;30855818;28;96704;-69
2022/12/09 00:21:33;;;;;;;21.52;12.27;;;;;;;0.52;73.14;99422.06;30855585;28;96758;-69
2022/12/09 00:36:33;;;;;;;20.17;12.10;;;;;;;0.50;73.04;99414.34;30854893;28;116397;-69
2022/12/09 00:51:34;;;;;;;21.00;12.23;;;;;;;0.47;73.21;99436.38;30854103;28;96491;-69
2022/12/09 01:06:34;;;;;;;22.65;12.68;;;;;;;0.35;73.46;99439.16;30853316;28;96568;-69
2022/12/09 01:21:35;;;;;;;22.10;11.65;;;;;;;0.31;73.90;99425.47;30871127;28;96586;-68
2022/12/09 01:36:35;;;;;;;21.00;11.68;;;;;;;0.28;73.81;99429.16;30871505;28;96746;-69
2022/12/09 01:51:36;;;;;;;20.17;11.13;;;;;;;0.13;73.93;99423.34;30760420;28;96719;-69
2022/12/09 02:06:37;;;;;;;20.42;10.95;;;;;;;0.06;74.47;99419.56;30746639;28;96685;-69
2022/12/09 02:21:48;;;;;;;20.00;11.02;;;;;;;0.09;74.52;99421.94;30745265;28;96818;-69
2022/12/09 02:37:27;;;;;;;18.08;11.43;;;;;;;0.09;74.32;99408.84;30744197;28;96709;-69
2022/12/09 02:52:30;;;;;;;22.98;12.13;;;;;;;-0.05;74.19;99403.88;30743131;28;96635;-70
2022/12/09 03:07:42;;;;;;;22.88;11.30;;;;;;;-0.20;74.29;99392.84;30741165;28;97418;-69
2022/12/09 03:22:46;;;;;;;19.48;11.05;;;;;;;-0.35;74.85;99387.84;30739325;28;96656;-69
2022/12/09 03:37:48;;;;;;;22.80;11.82;;;;;;;-0.21;74.74;99385.94;30736630;28;96874;-69
2022/12/09 03:53:02;;;;;;;23.42;11.93;;;;;;;0.03;75.02;99380.53;30735936;28;97498;-69
2022/12/09 04:08:03;;;;;;;21.10;12.30;;;;;;;0.12;74.96;99369.34;30733946;28;97242;-69
2022/12/09 04:23:03;;;;;;;22.77;12.02;;;;;;;-0.05;74.35;99386.38;30733519;28;98326;-69
2022/12/09 04:38:04;;;;;;;27.13;15.68;;;;;;;-0.49;74.83;99390.72;30732668;28;97291;-69
2022/12/09 04:53:04;;;;;;;28.77;15.95;;;;;;;-1.09;74.82;99390.06;30714511;28;96705;-69
2022/12/09 05:08:06;;;;;;;27.10;15.02;;;;;;;-1.51;75.66;99393.09;30689005;28;96975;-69
2022/12/09 05:23:07;;;;;;;30.38;15.15;;;;;;;-1.78;75.92;99412.44;30683769;28;97925;-69
2022/12/09 05:38:07;;;;;;;38.15;17.45;;;;;;;-1.67;76.92;99401.22;30683530;28;96678;-70
2022/12/09 05:53:08;;;;;;;36.65;18.90;;;;;;;-1.51;77.41;99415.78;30677874;28;97212;-69
2022/12/09 06:08:08;;;;;;;35.50;18.20;;;;;;;-0.99;77.96;99411.09;30672938;28;97860;-69
2022/12/09 06:23:09;;;;;;;27.15;15.95;;;;;;;-0.62;77.83;99405.69;30673355;28;96939;-70
2022/12/09 06:38:09;;;;;;;44.63;21.83;;;;;;;-0.37;77.47;99409.84;30669643;28;96684;-69
2022/12/09 06:53:09;;;;;;;44.35;22.10;;;;;;;-0.48;76.89;99402.81;30669190;28;97270;-69
2022/12/09 07:08:10;;;;;;;45.47;23.70;;;;;;;-0.48;77.28;99400.22;30663859;28;98242;-70
2022/12/09 07:23:12;;;;;;;43.28;21.08;;;;;;;-0.07;77.33;99401.41;30665750;28;96680;-70
2022/12/09 07:38:12;;;;;;;34.42;17.10;;;;;;;0.07;76.59;99413.38;30709221;28;96630;-69
2022/12/09 07:53:13;;;;;;;32.63;18.15;;;;;;;0.19;76.72;99422.03;30722081;28;96748;-71
2022/12/09 08:08:14;;;;;;;30.52;17.73;;;;;;;0.42;76.37;99416.75;30603809;28;97389;-72
2022/12/09 08:23:15;;;;;;;57.20;26.17;;;;;;;6.80;77.10;99427.56;30609670;28;97593;-68
2022/12/09 08:38:15;;;;;;;40.53;22.55;;;;;;;14.59;61.43;99425.34;30607353;28;97344;-70
2022/12/09 08:53:16;;;;;;;37.30;22.75;;;;;;;19.43;50.66;99423.91;30604955;28;96658;-68
2022/12/09 09:08:16;;;;;;;34.50;22.25;;;;;;;22.93;41.08;99425.88;30603140;28;96736;-68
2022/12/09 09:23:17;;;;;;;26.85;18.52;;;;;;;25.99;32.85;99405.66;30604177;28;96765;-68
2022/12/09 09:38:17;;;;;;;23.88;15.88;;;;;;;26.90;26.12;99410.16;30617426;28;96957;-68
2022/12/09 09:53:25;;;;;;;25.47;16.07;;;;;;;27.15;22.72;99388.97;30623854;28;96720;-68
2022/12/09 10:09:02;;;;;;;34.03;19.80;;;;;;;24.77;22.86;99369.25;30623412;28;96681;-72
2022/12/09 10:24:17;;;;;;;21.07;14.40;;;;;;;24.21;23.08;99367.72;30621650;28;96739;-69
2022/12/09 10:39:20;;;;;;;19.33;13.23;;;;;;;28.75;19.43;99359.13;30618104;28;96695;-68
2022/12/09 10:54:37;;;;;;;19.93;11.67;;;;;;;32.77;16.15;99325.94;30616524;28;97083;-69
2022/12/09 11:09:42;;;;;;;11.43;8.03;;;;;;;32.79;15.69;99299.59;30617135;28;97204;-70
2022/12/09 11:24:42;;;;;;;16.53;11.20;;;;;;;28.33;17.81;99285.31;30616012;28;97721;-70
2022/12/09 11:39:49;;;;;;;20.67;10.68;;;;;;;18.88;25.31;99277.88;30613669;28;97629;-67
2022/12/09 11:55:01;;;;;;;16.17;11.13;;;;;;;15.26;29.17;99266.59;30641274;28;97547;-67
2022/12/09 12:10:08;;;;;;;17.77;11.40;;;;;;;11.64;34.42;99262.50;30600779;28;96890;-67
2022/12/09 12:25:42;;;;;;;24.43;12.77;;;;;;;9.85;38.38;99250.38;30600537;28;96721;-68
2022/12/09 12:41:02;;;;;;;24.87;12.53;;;;;;;10.08;38.70;99259.00;30599707;28;97332;-68
2022/12/09 12:56:41;;;;;;;22.03;12.90;;;;;;;8.63;40.76;99244.50;30611027;28;97555;-68
2022/12/09 13:11:57;;;;;;;23.17;13.50;;;;;;;7.08;43.43;99254.09;30665843;28;96925;-68
2022/12/09 13:27:10;;;;;;;22.37;12.47;;;;;;;6.12;45.52;99246.94;30671835;28;96975;-68
2022/12/09 13:58:10;;;;;;;21.95;13.63;;;;;;;4.95;49.02;99263.41;30693439;28;96714;-67
2022/12/09 14:13:28;;;;;;;25.02;12.85;;;;;;;4.39;50.30;99247.88;30675800;28;98064;-71
2022/12/09 14:28:35;;;;;;;21.85;11.27;;;;;;;3.95;51.33;99204.84;30698116;28;96870;-69
2022/12/09 14:43:47;;;;;;;19.00;10.95;;;;;;;3.50;52.75;99185.50;30636721;28;97364;-70
2022/12/09 14:58:50;;;;;;;21.73;11.32;;;;;;;3.20;53.98;99176.97;30681025;28;96699;-70
2022/12/09 15:13:54;;;;;;;21.48;11.60;;;;;;;2.93;54.83;99169.91;30694405;28;97256;-71
2022/12/09 15:28:56;;;;;;;21.67;13.00;;;;;;;2.71;56.23;99179.84;30667087;28;97149;-74
2022/12/09 15:44:02;;;;;;;35.13;16.10;;;;;;;2.65;57.11;99157.59;30657999;28;97859;-72
2022/12/09 15:59:15;;;;;;;27.58;16.85;;;;;;;2.53;58.08;99169.25;30677184;28;96740;-71
2022/12/09 16:14:17;;;;;;;31.23;16.77;;;;;;;2.43;59.09;99160.56;30698658;28;97213;-72
2022/12/09 16:29:25;;;;;;;34.03;18.30;;;;;;;2.29;60.29;99151.34;30718538;28;97083;-73
2022/12/09 16:44:32;;;;;;;40.42;21.17;;;;;;;2.15;61.30;99165.75;30622493;28;97497;-73
2022/12/09 16:59:33;;;;;;;32.72;18.42;;;;;;;2.03;61.66;99126.47;30769003;28;96957;-73
2022/12/09 17:14:33;;;;;;;38.95;23.42;;;;;;;1.99;62.81;99125.09;30860609;28;96784;-72
2022/12/09 17:29:34;;;;;;;41.70;25.52;;;;;;;1.92;63.89;99138.97;30860371;28;96735;-73
2022/12/09 17:44:34;;;;;;;39.03;22.48;;;;;;;1.88;64.28;99127.91;30857454;28;96629;-73
2022/12/09 17:59:34;;;;;;;36.88;21.27;;;;;;;1.89;65.15;99131.34;30850210;28;98202;-73
2022/12/09 18:14:35;;;;;;;33.50;22.42;;;;;;;1.85;66.02;99131.63;30852992;28;97356;-73
2022/12/09 18:29:36;;;;;;;41.53;22.88;;;;;;;1.73;66.65;99129.31;30853300;28;96912;-73
2022/12/09 18:44:36;;;;;;;42.63;22.60;;;;;;;1.64;66.95;99137.06;30851185;28;96772;-72
2022/12/09 18:59:36;;;;;;;42.15;26.48;;;;;;;1.63;67.28;99129.31;30850915;28;96865;-68
2022/12/09 19:14:39;;;;;;;47.72;23.60;;;;;;;1.50;67.77;99145.31;30847823;28;97565;-71
2022/12/09 19:29:40;;;;;;;43.33;22.85;;;;;;;1.42;68.24;99127.66;30846922;28;96742;-70
2022/12/09 19:44:40;;;;;;;37.33;23.08;;;;;;;1.30;68.88;99115.59;30845315;28;97127;-71
2022/12/09 19:59:40;;;;;;;45.45;22.35;;;;;;;1.27;69.19;99119.38;30845584;28;96806;-69
2022/12/09 20:14:41;;;;;;;45.95;23.70;;;;;;;1.32;69.27;99127.63;30843715;28;97472;-70
2022/12/09 20:29:42;;;;;;;51.40;26.00;;;;;;;1.33;69.89;99120.59;30843232;28;96832;-71
2022/12/09 20:44:42;;;;;;;89.43;46.33;;;;;;;1.13;69.71;99123.19;30842120;28;96955;-70
2022/12/09 20:59:43;;;;;;;61.40;32.90;;;;;;;1.06;71.00;99131.75;30842963;28;96679;-71
2022/12/09 21:14:43;;;;;;;59.17;32.10;;;;;;;0.94;70.78;99134.47;30841770;28;97096;-71
2022/12/09 21:29:44;;;;;;;57.65;30.50;;;;;;;0.96;71.23;99136.97;30847114;28;97288;-69
2022/12/09 21:44:44;;;;;;;61.33;30.65;;;;;;;1.07;71.82;99134.25;30859423;28;96703;-70
2022/12/09 21:59:45;;;;;;;64.45;30.35;;;;;;;1.15;72.01;99147.50;30858551;28;96697;-70
2022/12/09 22:14:46;;;;;;;63.65;26.50;;;;;;;1.22;72.32;99145.19;30855939;28;97047;-71
2022/12/09 22:29:46;;;;;;;62.70;28.48;;;;;;;1.25;72.35;99126.53;30641007;28;96608;-69
2022/12/09 22:44:47;;;;;;;62.88;29.90;;;;;;;1.35;72.22;99132.63;30621634;28;97263;-70
2022/12/09 22:59:47;;;;;;;56.75;25.90;;;;;;;1.32;72.47;99122.38;30623308;28;96721;-73
2022/12/09 23:14:47;;;;;;;59.45;27.88;;;;;;;1.36;72.76;99141.31;30618933;28;96538;-72
2022/12/09 23:29:48;;;;;;;60.40;27.33;;;;;;;1.43;72.98;99146.84;30618392;28;96635;-72
2022/12/09 23:44:48;;;;;;;63.45;26.83;;;;;;;1.48;72.82;99152.53;30616457;28;97823;-72
2022/12/09 23:59:49;;;;;;;64.38;28.80;;;;;;;1.50;73.18;99166.31;30616050;28;97330;-72
